Stoneville, Massachusetts
Current Conditions -  °F | °C
As of 6:52 PM on Monday 20 Oct 2014 (Local Time) from KORE Reporting Station
Overcast Overcast  
Wind Chill: 50°   Ceiling: 9000
Heat Index: 50°   Visibility: 10mi
Dew Point: 36°   Wind: 6mph
Humidity: 59%   Direction: 210°SSW
Pressure: 29.97"   Gusts: NA
Location:  42.6125°N, 72.4148°W
Report Text: KORE 202252Z AUTO 21005KT 10SM OVC090 10/02 A2997 RMK AO2 SLP152 T01000022
Loading
Personal Weather Stations






























Interactive Weather Map
Tropical Storm Tracking
New forecast layout! Learn more

10-Day Weather Forecast

Advertisements
Track Severe Weather on mobile